Time;durP1;ratioP1;P1;durP2;ratioP2;P2;SDS_P1;SDS_P2;PMS_P1;PMS_P2;Temp;Humidity;BMP_temperature;BMP_pressure;BME280_temperature;BME280_humidity;BME280_pressure;Samples;Min_cycle;Max_cycle;Signal;HPM_P1;HPM_P2
2021/12/05 00:23:14;;;;;;;4.15;2.17;;;7.50;99.60;;;;;;10489534;28;20024;-73
2021/12/05 00:54:58;;;;;;;5.05;2.05;;;7.50;99.50;;;;;;10488580;28;20048;-67
2021/12/05 01:05:16;;;;;;;2.72;1.50;;;7.50;99.50;;;;;;10477258;28;20041;-73
2021/12/05 01:10:51;;;;;;;4.90;1.55;;;7.50;99.50;;;;;;10475454;28;20414;-68
2021/12/05 01:15:32;;;;;;;3.33;1.75;;;7.50;99.80;;;;;;10487424;28;20501;-73
2021/12/05 01:20:40;;;;;;;5.32;2.08;;;7.30;99.50;;;;;;10469899;28;20103;-69
2021/12/05 01:25:50;;;;;;;4.00;1.85;;;7.50;99.50;;;;;;10487338;28;20075;-73
2021/12/05 02:43:57;;;;;;;6.65;2.92;;;7.40;99.40;;;;;;10451673;28;20042;-69
2021/12/05 02:49:03;;;;;;;8.15;3.25;;;7.40;99.40;;;;;;10479882;28;20052;-70
2021/12/05 02:54:08;;;;;;;6.75;2.90;;;7.40;99.40;;;;;;10486022;28;20041;-71
2021/12/05 03:04:45;;;;;;;8.07;2.85;;;7.40;99.40;;;;;;10464520;28;20037;-72
2021/12/05 03:09:46;;;;;;;8.77;2.83;;;7.40;99.40;;;;;;10493382;28;20041;-71
2021/12/05 03:14:59;;;;;;;6.38;3.22;;;7.40;99.40;;;;;;10494309;28;20649;-72
2021/12/05 03:19:59;;;;;;;8.00;3.05;;;7.40;99.40;;;;;;10475454;28;20124;-70
2021/12/05 03:25:01;;;;;;;6.72;3.38;;;7.40;99.40;;;;;;10492323;28;20115;-72
2021/12/05 03:30:05;;;;;;;10.05;3.78;;;7.30;99.40;;;;;;10492349;28;20060;-71
2021/12/05 03:35:08;;;;;;;8.85;3.78;;;7.30;99.30;;;;;;10481033;28;20467;-71
2021/12/05 03:40:10;;;;;;;8.43;3.47;;;7.30;99.30;;;;;;10491308;28;20032;-71
2021/12/05 03:45:16;;;;;;;6.80;3.45;;;7.30;99.30;;;;;;10488197;28;20032;-72
2021/12/05 03:50:17;;;;;;;7.53;3.10;;;7.30;99.30;;;;;;10490184;28;20047;-70
2021/12/05 03:55:19;;;;;;;9.73;3.42;;;7.30;99.30;;;;;;10491970;28;20024;-67
2021/12/05 04:00:25;;;;;;;7.47;3.22;;;7.30;99.30;;;;;;10492759;28;20433;-71
2021/12/05 04:05:27;;;;;;;7.90;3.20;;;7.20;99.30;;;;;;10481070;28;20029;-68
2021/12/05 04:10:28;;;;;;;8.18;3.25;;;7.20;99.30;;;;;;10492825;28;20021;-71
2021/12/05 04:15:29;;;;;;;9.90;3.47;;;7.20;99.30;;;;;;10490819;28;20033;-70
2021/12/05 04:20:31;;;;;;;7.20;2.78;;;7.20;99.30;;;;;;10490571;28;20068;-70
2021/12/05 04:25:37;;;;;;;10.52;3.10;;;7.20;99.30;;;;;;10489488;28;20029;-72
2021/12/05 04:30:37;;;;;;;6.60;3.00;;;7.20;99.20;;;;;;10489662;28;20138;-71
2021/12/05 04:35:38;;;;;;;6.05;2.35;;;7.20;99.20;;;;;;10478425;28;20031;-71
2021/12/05 04:40:39;;;;;;;5.95;2.55;;;7.20;99.20;;;;;;10486881;28;20074;-71
2021/12/05 04:45:41;;;;;;;6.10;2.58;;;7.20;99.50;;;;;;10483061;28;20045;-70
2021/12/05 04:50:44;;;;;;;8.27;2.60;;;7.10;99.20;;;;;;10488862;28;20399;-71
2021/12/05 04:55:45;;;;;;;3.83;2.08;;;7.10;99.40;;;;;;10489355;28;20374;-70
2021/12/05 05:00:47;;;;;;;7.60;2.83;;;7.10;99.10;;;;;;10488851;28;20017;-68
2021/12/05 05:05:54;;;;;;;6.55;2.75;;;7.10;99.10;;;;;;10476533;28;20127;-68
2021/12/05 05:10:55;;;;;;;12.50;2.67;;;7.10;99.10;;;;;;10488230;28;20436;-70
2021/12/05 05:15:56;;;;;;;7.20;3.30;;;7.10;99.10;;;;;;10486758;28;20078;-71
2021/12/05 05:21:09;;;;;;;5.00;2.20;;;7.10;99.10;;;;;;10489284;28;20113;-71
2021/12/05 05:52:31;;;;;;;7.65;2.20;;;7.00;98.90;;;;;;10489579;28;20028;-71
2021/12/05 05:57:48;;;;;;;4.63;1.90;;;7.00;98.90;;;;;;10487778;28;20047;-71
2021/12/05 06:08:08;;;;;;;8.48;2.33;;;7.10;98.90;;;;;;10476089;28;20489;-70
2021/12/05 06:13:09;;;;;;;6.03;2.30;;;7.10;98.90;;;;;;10487812;28;20020;-71
2021/12/05 06:18:09;;;;;;;6.47;2.25;;;7.10;98.90;;;;;;10488198;28;20422;-70
2021/12/05 06:23:11;;;;;;;7.18;2.67;;;7.00;98.80;;;;;;10486782;28;20071;-69
2021/12/05 06:28:14;;;;;;;6.65;2.42;;;7.10;98.90;;;;;;10487392;28;20048;-71
2021/12/05 06:48:49;;;;;;;6.38;2.53;;;7.10;98.80;;;;;;10481054;28;20065;-70
2021/12/05 06:53:51;;;;;;;5.38;2.30;;;7.10;98.80;;;;;;10486623;28;20051;-68
2021/12/05 06:58:52;;;;;;;6.28;2.63;;;7.10;98.80;;;;;;10479685;28;20495;-70
2021/12/05 07:03:53;;;;;;;5.95;2.50;;;7.10;98.80;;;;;;10469285;28;20382;-68
2021/12/05 07:08:59;;;;;;;6.47;2.70;;;7.10;98.80;;;;;;10479286;28;20048;-72
2021/12/05 07:45:18;;;;;;;6.65;2.88;;;7.00;98.60;;;;;;10481224;28;19951;-72
2021/12/05 07:50:29;;;;;;;7.13;3.17;;;7.20;98.70;;;;;;10489300;28;20045;-71
2021/12/05 07:55:37;;;;;;;8.52;3.05;;;7.10;98.70;;;;;;10479692;28;20163;-72
2021/12/05 08:00:52;;;;;;;9.93;3.15;;;7.10;98.70;;;;;;10490528;28;20146;-66
2021/12/05 08:16:33;;;;;;;9.00;3.63;;;7.10;98.70;;;;;;10492560;28;20044;-73
2021/12/05 08:21:34;;;;;;;7.75;3.55;;;7.10;98.70;;;;;;10492776;28;20032;-71
2021/12/05 08:26:35;;;;;;;7.45;3.42;;;7.10;98.70;;;;;;10491619;28;20044;-72
2021/12/05 09:08:55;;;;;;;6.15;3.05;;;7.20;98.70;;;;;;10484681;28;20055;-67
2021/12/05 09:25:23;;;;;;;7.18;3.10;;;7.20;98.70;;;;;;10488661;28;20498;-71
2021/12/05 09:40:15;;;;;;;4.55;2.72;;;7.20;98.70;;;;;;10488275;28;20064;-76
2021/12/05 10:38:42;;;;;;;4.95;2.60;;;7.20;98.70;;;;;;10480181;28;20033;-63
2021/12/05 10:43:47;;;;;;;5.05;2.35;;;7.20;98.70;;;;;;10484127;28;20036;-63
2021/12/05 10:49:03;;;;;;;5.88;2.17;;;7.20;98.70;;;;;;10478758;28;20052;-62
2021/12/05 10:54:09;;;;;;;4.43;2.53;;;7.20;98.70;;;;;;10485251;28;20079;-60
2021/12/05 10:59:16;;;;;;;6.15;2.35;;;7.20;98.70;;;;;;10484558;28;20017;-62
2021/12/05 11:04:30;;;;;;;4.28;2.30;;;7.20;98.70;;;;;;10464590;28;20459;-68
2021/12/05 11:09:37;;;;;;;3.35;2.00;;;7.30;98.70;;;;;;10482003;28;20552;-64
2021/12/05 11:14:53;;;;;;;5.53;2.55;;;7.30;98.70;;;;;;10484751;28;20586;-66
2021/12/05 11:20:21;;;;;;;5.30;2.60;;;7.30;98.60;;;;;;10474081;28;20409;-62
2021/12/05 11:25:27;;;;;;;7.43;2.97;;;7.30;98.60;;;;;;10490659;28;20478;-64
2021/12/05 11:30:34;;;;;;;6.55;2.25;;;7.30;98.60;;;;;;10492709;28;20039;-67
2021/12/05 11:35:42;;;;;;;5.75;2.20;;;7.40;98.60;;;;;;10481182;28;20390;-60
2021/12/05 11:40:58;;;;;;;4.63;2.03;;;7.40;98.50;;;;;;10490636;28;20021;-61
2021/12/05 11:46:07;;;;;;;4.13;2.15;;;7.50;98.50;;;;;;10485148;28;20127;-65
2021/12/05 11:51:34;;;;;;;3.08;1.95;;;7.50;98.50;;;;;;10491617;28;20289;-61
2021/12/05 11:56:34;;;;;;;3.55;1.92;;;7.50;98.40;;;;;;10491402;28;20406;-66
2021/12/05 12:01:49;;;;;;;3.10;2.05;;;7.50;98.40;;;;;;10473197;28;20040;-64
2021/12/05 12:07:13;;;;;;;3.20;2.08;;;7.50;98.40;;;;;;10456354;28;20040;-66
2021/12/05 12:12:15;;;;;;;8.30;2.35;;;7.60;98.40;;;;;;10483735;28;20438;-75
2021/12/05 12:17:17;;;;;;;3.50;2.10;;;7.60;98.40;;;;;;10475146;28;20124;-72
2021/12/05 12:22:21;;;;;;;5.53;2.22;;;7.60;98.40;;;;;;10489989;28;20025;-69
2021/12/05 12:27:22;;;;;;;3.30;2.03;;;7.60;98.40;;;;;;10490237;28;20048;-70
2021/12/05 12:32:29;;;;;;;5.25;2.08;;;7.60;98.40;;;;;;10490814;28;20024;-67
2021/12/05 12:37:29;;;;;;;6.07;2.17;;;7.60;98.40;;;;;;10479089;28;20138;-69
2021/12/05 12:42:38;;;;;;;4.20;2.05;;;7.70;98.70;;;;;;10488584;28;20029;-70
2021/12/05 12:47:45;;;;;;;6.80;2.33;;;7.60;98.40;;;;;;10484301;28;20036;-67
2021/12/05 12:53:21;;;;;;;4.38;2.00;;;7.60;98.40;;;;;;10473185;28;20036;-67
2021/12/05 12:58:42;;;;;;;3.17;1.90;;;7.60;98.30;;;;;;10436033;28;20033;-65
2021/12/05 13:04:27;;;;;;;3.47;2.13;;;7.80;98.50;;;;;;10480852;28;20450;-69
2021/12/05 13:15:17;;;;;;;5.97;2.10;;;7.60;98.50;;;;;;10487134;28;20028;-63
2021/12/05 13:20:27;;;;;;;3.05;1.77;;;7.50;98.40;;;;;;10507829;28;20031;-61
2021/12/05 13:25:33;;;;;;;3.00;1.80;;;7.60;98.60;;;;;;10476634;28;20040;-63
2021/12/05 13:30:34;;;;;;;4.47;2.03;;;7.90;98.60;;;;;;10474181;28;20075;-68
2021/12/05 13:35:36;;;;;;;3.63;1.90;;;7.60;98.60;;;;;;10476610;28;20041;-65
2021/12/05 13:40:39;;;;;;;3.20;1.77;;;7.60;98.60;;;;;;10484535;28;20044;-64
2021/12/05 13:45:43;;;;;;;3.50;1.80;;;7.70;98.60;;;;;;10477870;28;20048;-64
2021/12/05 13:50:48;;;;;;;4.90;1.67;;;7.60;98.80;;;;;;10483569;28;20054;-67
2021/12/05 13:55:59;;;;;;;4.45;1.90;;;7.70;98.60;;;;;;10474570;28;20067;-67
2021/12/05 14:01:29;;;;;;;2.55;1.60;;;7.70;98.60;;;;;;10486788;28;20043;-67
2021/12/05 14:06:35;;;;;;;2.63;1.40;;;7.70;98.60;;;;;;10474739;28;20044;-66
2021/12/05 14:12:10;;;;;;;3.85;1.65;;;7.70;98.60;;;;;;10486562;28;20028;-68
2021/12/05 14:17:26;;;;;;;3.25;1.40;;;7.70;98.60;;;;;;10424938;28;20406;-67
2021/12/05 14:22:32;;;;;;;3.72;1.63;;;7.60;98.60;;;;;;10485712;28;20510;-67
2021/12/05 14:27:38;;;;;;;2.90;1.58;;;7.60;98.60;;;;;;10468161;28;20035;-67
2021/12/05 14:32:41;;;;;;;3.45;1.50;;;7.70;98.60;;;;;;10468855;28;20017;-67
2021/12/05 14:37:44;;;;;;;2.47;1.60;;;7.70;98.60;;;;;;10475832;28;20037;-67
2021/12/05 14:42:48;;;;;;;2.20;1.60;;;7.70;98.70;;;;;;10483520;28;20021;-68
2021/12/05 14:47:52;;;;;;;3.72;1.70;;;7.70;98.70;;;;;;10480642;28;20553;-68
2021/12/05 14:52:55;;;;;;;3.35;1.67;;;7.70;98.60;;;;;;10485708;28;20143;-67
2021/12/05 14:57:59;;;;;;;3.45;1.48;;;7.70;98.70;;;;;;10486885;28;20021;-66
2021/12/05 15:03:15;;;;;;;3.75;1.60;;;7.70;98.70;;;;;;10494118;28;20079;-64
2021/12/05 15:08:20;;;;;;;4.00;1.80;;;7.70;98.70;;;;;;10482545;28;20033;-66
2021/12/05 15:13:21;;;;;;;2.35;1.70;;;7.70;98.70;;;;;;10493759;28;20486;-67
2021/12/05 15:18:28;;;;;;;2.35;1.58;;;7.60;98.70;;;;;;10492932;28;20028;-67
2021/12/05 15:23:32;;;;;;;4.40;1.90;;;7.70;98.70;;;;;;10492714;28;20020;-67
2021/12/05 15:28:35;;;;;;;3.80;1.40;;;7.70;98.80;;;;;;10493051;28;20048;-67
2021/12/05 15:33:37;;;;;;;2.45;1.58;;;7.60;98.70;;;;;;10485856;28;20124;-67
2021/12/05 15:38:38;;;;;;;2.97;1.73;;;7.60;98.80;;;;;;10488145;28;20278;-67
2021/12/05 15:43:41;;;;;;;2.10;1.25;;;7.60;98.80;;;;;;10490817;28;20029;-67
2021/12/05 15:48:47;;;;;;;2.75;1.65;;;7.60;98.80;;;;;;10485447;28;20052;-67
2021/12/05 15:53:48;;;;;;;7.00;1.60;;;7.60;98.80;;;;;;10491346;28;20029;-65
2021/12/05 15:58:58;;;;;;;2.20;1.55;;;8.50;99.00;;;;;;10490295;28;20120;-67
2021/12/05 16:04:05;;;;;;;2.72;1.60;;;7.60;98.80;;;;;;10486560;28;20025;-65
2021/12/05 16:09:14;;;;;;;2.80;1.52;;;7.60;98.80;;;;;;10483970;28;20067;-66
2021/12/05 16:14:26;;;;;;;;;;;7.80;98.90;;;;;;10481326;28;20113;-70
2021/12/05 16:19:28;;;;;;;4.00;2.10;;;7.70;99.50;;;;;;10461008;28;20003;-61
2021/12/05 16:24:29;;;;;;;3.92;1.75;;;7.70;99.10;;;;;;10457627;28;20029;-69
2021/12/05 16:29:30;;;;;;;2.70;1.60;;;7.70;99.20;;;;;;10452131;28;20486;-69
2021/12/05 16:34:32;;;;;;;3.95;2.05;;;7.70;99.30;;;;;;10479108;28;20033;-70
2021/12/05 16:39:38;;;;;;;2.05;1.70;;;7.70;99.30;;;;;;10468464;28;20440;-66
2021/12/05 16:44:41;;;;;;;2.50;1.70;;;7.60;99.20;;;;;;10457494;28;20031;-69
2021/12/05 16:49:48;;;;;;;2.38;1.73;;;7.60;99.10;;;;;;10457429;28;20041;-76
2021/12/05 16:54:51;;;;;;;3.92;2.10;;;7.60;99.10;;;;;;10452733;28;20033;-78
2021/12/05 16:59:55;;;;;;;3.67;2.15;;;7.60;99.10;;;;;;10453097;28;20699;-76
2021/12/05 17:05:02;;;;;;;3.70;2.22;;;7.60;99.10;;;;;;10456801;28;20029;-68
2021/12/05 17:10:27;;;;;;;4.30;2.20;;;7.60;99.10;;;;;;10467757;28;20162;-64
2021/12/05 17:15:29;;;;;;;3.70;2.47;;;7.60;99.00;;;;;;10415654;28;20037;-62
2021/12/05 17:20:36;;;;;;;4.63;2.50;;;7.60;99.00;;;;;;10453867;28;20028;-63
2021/12/05 17:25:44;;;;;;;4.75;2.50;;;7.60;99.00;;;;;;10451793;28;20412;-71
2021/12/05 17:30:55;;;;;;;7.22;2.45;;;7.60;99.00;;;;;;10484861;28;20024;-67
2021/12/05 17:35:57;;;;;;;6.05;2.90;;;7.60;99.00;;;;;;10482864;28;20082;-69
2021/12/05 17:40:59;;;;;;;4.47;2.85;;;7.60;99.00;;;;;;10496322;28;20093;-68
2021/12/05 17:45:59;;;;;;;4.60;2.70;;;7.60;99.00;;;;;;10471311;28;20036;-68
2021/12/05 17:51:04;;;;;;;3.58;2.45;;;7.60;99.00;;;;;;10487721;28;20040;-67
2021/12/05 17:56:24;;;;;;;5.25;2.63;;;7.60;99.00;;;;;;10488943;28;20539;-68
2021/12/05 18:06:44;;;;;;;;;;;7.60;99.00;;;;;;10463259;28;19952;-68
2021/12/05 18:11:45;;;;;;;4.55;2.72;;;7.60;99.00;;;;;;10472051;28;19956;-66
2021/12/05 18:16:46;;;;;;;4.10;2.90;;;7.60;99.00;;;;;;10471893;28;20183;-66
2021/12/05 18:21:50;;;;;;;4.90;2.88;;;7.60;99.10;;;;;;10467000;28;20414;-68
2021/12/05 18:26:52;;;;;;;4.43;2.33;;;7.60;98.90;;;;;;10485008;28;20029;-70
2021/12/05 18:31:54;;;;;;;3.50;2.53;;;7.80;98.90;;;;;;10486749;28;20017;-66
2021/12/05 18:36:58;;;;;;;3.47;2.25;;;7.70;98.90;;;;;;10488071;28;20036;-73
2021/12/05 18:42:04;;;;;;;4.35;2.63;;;7.60;98.90;;;;;;10461309;28;20021;-68
2021/12/05 18:47:06;;;;;;;6.43;2.70;;;7.60;98.80;;;;;;10457486;28;20052;-66
2021/12/05 18:52:07;;;;;;;4.50;2.80;;;7.60;98.80;;;;;;10448808;28;20021;-68
2021/12/05 18:57:10;;;;;;;4.90;2.60;;;7.60;98.90;;;;;;10450856;28;20371;-69
2021/12/05 19:07:42;;;;;;;4.97;2.60;;;7.70;98.90;;;;;;10473544;28;20047;-69
2021/12/05 19:12:43;;;;;;;5.15;3.20;;;7.60;98.90;;;;;;10482099;28;20044;-66
2021/12/05 19:17:44;;;;;;;5.85;3.22;;;7.60;98.90;;;;;;10469641;28;20051;-68
2021/12/05 19:22:46;;;;;;;4.32;2.70;;;7.60;98.90;;;;;;10480210;28;20037;-68
2021/12/05 19:27:48;;;;;;;7.18;2.88;;;7.60;98.90;;;;;;10484119;28;20076;-68
2021/12/05 19:32:50;;;;;;;4.63;3.42;;;7.60;98.90;;;;;;10483017;28;20037;-68
2021/12/05 19:37:50;;;;;;;5.80;3.42;;;7.60;98.90;;;;;;10481375;28;20035;-68
2021/12/05 19:42:53;;;;;;;6.05;3.33;;;7.60;98.90;;;;;;10480607;28;20035;-67
2021/12/05 19:47:54;;;;;;;5.47;3.65;;;7.60;98.90;;;;;;10480377;28;20410;-67
2021/12/05 19:52:55;;;;;;;4.80;3.03;;;7.60;99.00;;;;;;10488946;28;20467;-66
2021/12/05 19:57:56;;;;;;;5.95;3.55;;;7.60;99.00;;;;;;10485595;28;20056;-68
2021/12/05 20:02:57;;;;;;;5.20;3.30;;;7.60;99.00;;;;;;10491749;28;20028;-67
2021/12/05 20:07:59;;;;;;;5.65;3.60;;;7.60;99.00;;;;;;10475362;28;20430;-67
2021/12/05 20:13:01;;;;;;;6.15;3.75;;;7.60;99.00;;;;;;10489450;28;20036;-67
2021/12/05 20:18:08;;;;;;;7.13;3.85;;;7.60;99.00;;;;;;10482343;28;20036;-67
2021/12/05 20:23:11;;;;;;;7.72;3.78;;;7.60;99.00;;;;;;10482173;28;20028;-67
2021/12/05 20:28:12;;;;;;;6.97;4.20;;;7.60;99.00;;;;;;10487828;28;20040;-68
2021/12/05 20:33:14;;;;;;;7.05;3.78;;;7.60;99.00;;;;;;10488554;28;20031;-68
2021/12/05 20:38:14;;;;;;;7.80;4.22;;;7.60;99.00;;;;;;10490582;28;20401;-67
2021/12/05 20:43:17;;;;;;;9.65;4.82;;;7.60;99.00;;;;;;10489318;28;20029;-66
2021/12/05 20:48:19;;;;;;;8.75;4.43;;;7.60;99.00;;;;;;10486529;28;20055;-64
2021/12/05 20:53:25;;;;;;;7.90;5.03;;;7.60;99.00;;;;;;10482707;28;20044;-67
2021/12/05 20:58:27;;;;;;;11.00;5.38;;;7.60;99.00;;;;;;10478509;28;20035;-60
2021/12/05 21:03:29;;;;;;;9.38;5.18;;;7.60;99.00;;;;;;10485394;28;20437;-68
2021/12/05 21:08:35;;;;;;;11.65;5.82;;;7.60;99.00;;;;;;10475255;28;20391;-68
2021/12/05 21:13:37;;;;;;;10.98;5.85;;;7.60;99.00;;;;;;10468847;28;20556;-66
2021/12/05 21:18:43;;;;;;;12.05;5.90;;;7.70;99.00;;;;;;10464541;28;20078;-67
2021/12/05 21:23:45;;;;;;;12.27;6.10;;;7.60;99.00;;;;;;10485559;28;20096;-66
2021/12/05 21:28:46;;;;;;;10.43;5.35;;;7.60;99.00;;;;;;10489685;28;20076;-64
2021/12/05 21:33:48;;;;;;;13.43;5.78;;;7.60;99.10;;;;;;10487824;28;20008;-68
2021/12/05 21:38:49;;;;;;;11.95;6.32;;;7.60;99.10;;;;;;10486892;28;20463;-66
2021/12/05 21:43:53;;;;;;;13.50;5.85;;;7.60;99.10;;;;;;10484755;28;20028;-64
2021/12/05 21:48:54;;;;;;;11.65;6.35;;;7.60;99.10;;;;;;10497821;28;20044;-65
2021/12/05 21:53:55;;;;;;;12.90;5.85;;;7.60;99.10;;;;;;10484484;28;20426;-68
2021/12/05 21:58:56;;;;;;;17.40;7.05;;;7.60;99.10;;;;;;10490011;28;20078;-67
2021/12/05 22:03:57;;;;;;;13.02;6.25;;;7.60;99.10;;;;;;10482860;28;20081;-67
2021/12/05 22:08:58;;;;;;;13.02;6.43;;;7.60;99.10;;;;;;10484426;28;20028;-67
2021/12/05 22:13:58;;;;;;;14.00;6.25;;;7.70;99.10;;;;;;10490905;28;20454;-67
2021/12/05 22:19:02;;;;;;;10.90;6.13;;;7.60;99.10;;;;;;10487137;28;20028;-67
2021/12/05 22:24:04;;;;;;;10.95;5.57;;;7.60;99.10;;;;;;10486611;28;20063;-67
2021/12/05 22:29:06;;;;;;;10.13;5.55;;;7.60;99.10;;;;;;10472124;28;20091;-67
2021/12/05 22:34:09;;;;;;;13.63;5.82;;;7.60;99.20;;;;;;10451069;28;20053;-67
2021/12/05 22:39:12;;;;;;;14.43;6.65;;;7.60;99.10;;;;;;10449935;28;20031;-65
2021/12/05 22:44:13;;;;;;;11.68;6.13;;;7.60;99.10;;;;;;10454042;28;20102;-68
2021/12/05 22:49:14;;;;;;;11.95;6.03;;;8.30;99.30;;;;;;10449445;28;20540;-65
2021/12/05 22:54:14;;;;;;;12.32;6.72;;;7.60;99.10;;;;;;10477892;28;20028;-66
2021/12/05 22:59:15;;;;;;;13.73;6.68;;;7.60;99.10;;;;;;10476068;28;20044;-66
2021/12/05 23:04:17;;;;;;;12.00;6.53;;;7.60;99.10;;;;;;10484910;28;20054;-69
2021/12/05 23:09:19;;;;;;;14.60;6.97;;;7.50;99.10;;;;;;10464990;28;20037;-64
2021/12/05 23:14:21;;;;;;;12.10;5.78;;;7.60;99.10;;;;;;10480921;28;20086;-65
2021/12/05 23:19:22;;;;;;;17.30;7.43;;;7.50;99.10;;;;;;10491699;28;20111;-68
2021/12/05 23:24:27;;;;;;;14.02;5.85;;;7.50;99.10;;;;;;10497113;28;20028;-66
2021/12/05 23:29:34;;;;;;;12.73;6.38;;;7.50;99.10;;;;;;10493920;28;20288;-67
2021/12/05 23:34:35;;;;;;;12.88;6.38;;;7.50;99.10;;;;;;10481147;28;20387;-67
2021/12/05 23:39:36;;;;;;;17.17;7.18;;;7.50;99.10;;;;;;10504766;28;20174;-67
2021/12/05 23:44:37;;;;;;;15.98;6.90;;;7.50;99.30;;;;;;10492069;28;20042;-66
2021/12/05 23:49:38;;;;;;;14.95;7.38;;;7.60;99.10;;;;;;10492387;28;20063;-67
2021/12/05 23:54:39;;;;;;;15.68;7.20;;;7.50;99.00;;;;;;10490899;28;20024;-67
2021/12/05 23:59:40;;;;;;;14.38;6.50;;;7.50;99.00;;;;;;10490101;28;20478;-68
